sensor_id;sensor_type;location;lat;lon;timestamp;P1;durP1;ratioP1;P2;durP2;ratioP2
23282;SDS011;11810;51.178;3.878;2022-08-02T00:00:22;7.88;;;3.00;;
23282;SDS011;11810;51.178;3.878;2022-08-02T00:02:48;4.88;;;2.90;;
23282;SDS011;11810;51.178;3.878;2022-08-02T00:05:14;4.90;;;2.50;;
23282;SDS011;11810;51.178;3.878;2022-08-02T00:07:40;9.57;;;2.45;;
23282;SDS011;11810;51.178;3.878;2022-08-02T00:10:07;6.40;;;3.10;;
23282;SDS011;11810;51.178;3.878;2022-08-02T00:12:34;9.68;;;3.35;;
23282;SDS011;11810;51.178;3.878;2022-08-02T00:15:00;7.72;;;3.08;;
23282;SDS011;11810;51.178;3.878;2022-08-02T00:17:27;9.30;;;3.25;;
23282;SDS011;11810;51.178;3.878;2022-08-02T00:19:52;5.72;;;2.83;;
23282;SDS011;11810;51.178;3.878;2022-08-02T00:22:18;9.43;;;3.42;;
23282;SDS011;11810;51.178;3.878;2022-08-02T00:24:44;11.52;;;3.50;;
23282;SDS011;11810;51.178;3.878;2022-08-02T00:27:10;5.85;;;3.25;;
23282;SDS011;11810;51.178;3.878;2022-08-02T00:29:36;7.10;;;2.88;;
23282;SDS011;11810;51.178;3.878;2022-08-02T00:32:02;12.02;;;3.83;;
23282;SDS011;11810;51.178;3.878;2022-08-02T00:34:28;8.77;;;3.30;;
23282;SDS011;11810;51.178;3.878;2022-08-02T00:36:54;9.45;;;3.47;;
23282;SDS011;11810;51.178;3.878;2022-08-02T00:39:20;3.97;;;2.47;;
23282;SDS011;11810;51.178;3.878;2022-08-02T00:41:47;7.40;;;3.53;;
23282;SDS011;11810;51.178;3.878;2022-08-02T00:44:16;6.00;;;3.10;;
23282;SDS011;11810;51.178;3.878;2022-08-02T00:46:44;4.10;;;2.97;;
23282;SDS011;11810;51.178;3.878;2022-08-02T00:49:11;6.85;;;2.80;;
23282;SDS011;11810;51.178;3.878;2022-08-02T00:51:37;6.95;;;3.30;;
23282;SDS011;11810;51.178;3.878;2022-08-02T00:54:04;8.88;;;3.38;;
23282;SDS011;11810;51.178;3.878;2022-08-02T00:56:31;9.30;;;3.50;;
23282;SDS011;11810;51.178;3.878;2022-08-02T00:58:57;8.13;;;3.38;;
23282;SDS011;11810;51.178;3.878;2022-08-02T01:01:23;11.50;;;3.72;;
23282;SDS011;11810;51.178;3.878;2022-08-02T01:04:05;6.70;;;3.45;;
23282;SDS011;11810;51.178;3.878;2022-08-02T01:06:36;5.32;;;3.10;;
23282;SDS011;11810;51.178;3.878;2022-08-02T01:09:03;11.65;;;3.53;;
23282;SDS011;11810;51.178;3.878;2022-08-02T01:11:30;5.95;;;3.60;;
23282;SDS011;11810;51.178;3.878;2022-08-02T01:13:57;9.43;;;3.47;;
23282;SDS011;11810;51.178;3.878;2022-08-02T01:16:38;8.02;;;3.50;;
23282;SDS011;11810;51.178;3.878;2022-08-02T01:30:28;10.75;;;3.78;;
23282;SDS011;11810;51.178;3.878;2022-08-02T01:32:57;8.88;;;3.65;;
23282;SDS011;11810;51.178;3.878;2022-08-02T01:35:59;10.05;;;4.10;;
23282;SDS011;11810;51.178;3.878;2022-08-02T01:38:29;11.93;;;3.88;;
23282;SDS011;11810;51.178;3.878;2022-08-02T01:41:00;10.43;;;4.60;;
23282;SDS011;11810;51.178;3.878;2022-08-02T01:43:28;14.00;;;4.88;;
23282;SDS011;11810;51.178;3.878;2022-08-02T01:47:55;9.55;;;4.45;;
23282;SDS011;11810;51.178;3.878;2022-08-02T01:50:25;9.55;;;4.78;;
23282;SDS011;11810;51.178;3.878;2022-08-02T01:52:54;13.55;;;5.15;;
23282;SDS011;11810;51.178;3.878;2022-08-02T01:55:24;6.05;;;3.75;;
23282;SDS011;11810;51.178;3.878;2022-08-02T01:57:56;8.57;;;3.95;;
23282;SDS011;11810;51.178;3.878;2022-08-02T02:00:24;12.05;;;4.13;;
23282;SDS011;11810;51.178;3.878;2022-08-02T02:02:54;26.92;;;5.97;;
23282;SDS011;11810;51.178;3.878;2022-08-02T02:05:23;20.48;;;4.60;;
23282;SDS011;11810;51.178;3.878;2022-08-02T02:07:52;13.05;;;4.93;;
23282;SDS011;11810;51.178;3.878;2022-08-02T02:10:27;13.40;;;5.53;;
23282;SDS011;11810;51.178;3.878;2022-08-02T02:15:23;15.02;;;8.73;;
23282;SDS011;11810;51.178;3.878;2022-08-02T02:17:51;22.13;;;12.77;;
23282;SDS011;11810;51.178;3.878;2022-08-02T02:20:19;21.25;;;14.68;;
23282;SDS011;11810;51.178;3.878;2022-08-02T02:22:46;27.70;;;17.10;;
23282;SDS011;11810;51.178;3.878;2022-08-02T02:25:13;25.60;;;17.00;;
23282;SDS011;11810;51.178;3.878;2022-08-02T02:27:42;23.33;;;13.77;;
23282;SDS011;11810;51.178;3.878;2022-08-02T02:30:20;27.13;;;17.67;;
23282;SDS011;11810;51.178;3.878;2022-08-02T02:32:50;26.77;;;17.55;;
23282;SDS011;11810;51.178;3.878;2022-08-02T02:35:19;28.98;;;19.20;;
23282;SDS011;11810;51.178;3.878;2022-08-02T02:37:47;25.42;;;17.75;;
23282;SDS011;11810;51.178;3.878;2022-08-02T02:40:15;30.17;;;19.17;;
23282;SDS011;11810;51.178;3.878;2022-08-02T02:42:42;26.25;;;18.70;;
23282;SDS011;11810;51.178;3.878;2022-08-02T02:45:09;28.67;;;18.92;;
23282;SDS011;11810;51.178;3.878;2022-08-02T02:47:36;38.15;;;19.10;;
23282;SDS011;11810;51.178;3.878;2022-08-02T02:50:04;26.27;;;17.27;;
23282;SDS011;11810;51.178;3.878;2022-08-02T02:52:30;26.25;;;16.23;;
23282;SDS011;11810;51.178;3.878;2022-08-02T02:54:57;31.42;;;18.27;;
23282;SDS011;11810;51.178;3.878;2022-08-02T02:57:24;21.23;;;15.57;;
23282;SDS011;11810;51.178;3.878;2022-08-02T02:59:50;33.22;;;18.02;;
23282;SDS011;11810;51.178;3.878;2022-08-02T03:02:18;23.25;;;15.75;;
23282;SDS011;11810;51.178;3.878;2022-08-02T03:04:44;26.02;;;17.75;;
23282;SDS011;11810;51.178;3.878;2022-08-02T03:07:11;28.98;;;18.15;;
23282;SDS011;11810;51.178;3.878;2022-08-02T03:09:37;28.38;;;16.30;;
23282;SDS011;11810;51.178;3.878;2022-08-02T03:12:03;21.38;;;15.32;;
23282;SDS011;11810;51.178;3.878;2022-08-02T03:14:30;25.23;;;15.63;;
23282;SDS011;11810;51.178;3.878;2022-08-02T03:16:56;27.85;;;17.42;;
23282;SDS011;11810;51.178;3.878;2022-08-02T03:19:22;28.38;;;17.70;;
23282;SDS011;11810;51.178;3.878;2022-08-02T03:21:49;29.40;;;18.55;;
23282;SDS011;11810;51.178;3.878;2022-08-02T03:24:15;28.45;;;17.25;;
23282;SDS011;11810;51.178;3.878;2022-08-02T03:26:41;29.20;;;20.60;;
23282;SDS011;11810;51.178;3.878;2022-08-02T03:29:07;28.65;;;19.02;;
23282;SDS011;11810;51.178;3.878;2022-08-02T03:31:34;27.55;;;18.08;;
23282;SDS011;11810;51.178;3.878;2022-08-02T03:34:04;26.83;;;18.17;;
23282;SDS011;11810;51.178;3.878;2022-08-02T03:36:30;30.88;;;19.55;;
23282;SDS011;11810;51.178;3.878;2022-08-02T03:38:59;27.83;;;18.48;;
23282;SDS011;11810;51.178;3.878;2022-08-02T03:41:25;31.90;;;21.00;;
23282;SDS011;11810;51.178;3.878;2022-08-02T03:43:53;28.50;;;18.00;;
23282;SDS011;11810;51.178;3.878;2022-08-02T03:46:21;26.30;;;18.45;;
23282;SDS011;11810;51.178;3.878;2022-08-02T03:48:49;27.85;;;17.95;;
23282;SDS011;11810;51.178;3.878;2022-08-02T03:51:16;26.92;;;18.70;;
23282;SDS011;11810;51.178;3.878;2022-08-02T03:53:43;26.52;;;17.75;;
23282;SDS011;11810;51.178;3.878;2022-08-02T03:56:10;28.73;;;18.02;;
23282;SDS011;11810;51.178;3.878;2022-08-02T03:58:36;32.80;;;21.13;;
23282;SDS011;11810;51.178;3.878;2022-08-02T04:01:02;30.02;;;21.48;;
23282;SDS011;11810;51.178;3.878;2022-08-02T04:03:28;29.85;;;19.42;;
23282;SDS011;11810;51.178;3.878;2022-08-02T04:05:54;29.38;;;20.27;;
23282;SDS011;11810;51.178;3.878;2022-08-02T04:08:20;30.65;;;20.65;;
23282;SDS011;11810;51.178;3.878;2022-08-02T04:10:46;31.48;;;19.98;;
23282;SDS011;11810;51.178;3.878;2022-08-02T04:13:34;29.75;;;19.58;;
23282;SDS011;11810;51.178;3.878;2022-08-02T04:16:20;28.90;;;19.67;;
23282;SDS011;11810;51.178;3.878;2022-08-02T04:18:53;32.60;;;20.33;;
23282;SDS011;11810;51.178;3.878;2022-08-02T04:21:22;38.28;;;23.50;;
23282;SDS011;11810;51.178;3.878;2022-08-02T04:23:51;38.00;;;21.48;;
23282;SDS011;11810;51.178;3.878;2022-08-02T04:26:18;35.38;;;20.60;;
23282;SDS011;11810;51.178;3.878;2022-08-02T04:28:45;32.88;;;21.60;;
23282;SDS011;11810;51.178;3.878;2022-08-02T04:31:13;32.00;;;21.40;;
23282;SDS011;11810;51.178;3.878;2022-08-02T04:33:41;31.52;;;20.67;;
23282;SDS011;11810;51.178;3.878;2022-08-02T04:36:07;38.13;;;20.90;;
23282;SDS011;11810;51.178;3.878;2022-08-02T04:38:35;37.05;;;21.45;;
23282;SDS011;11810;51.178;3.878;2022-08-02T04:41:02;38.53;;;22.88;;
23282;SDS011;11810;51.178;3.878;2022-08-02T04:43:28;38.65;;;24.48;;
23282;SDS011;11810;51.178;3.878;2022-08-02T04:45:54;36.28;;;22.20;;
23282;SDS011;11810;51.178;3.878;2022-08-02T04:48:20;38.78;;;24.08;;
23282;SDS011;11810;51.178;3.878;2022-08-02T04:50:47;39.20;;;22.15;;
23282;SDS011;11810;51.178;3.878;2022-08-02T04:53:13;45.40;;;24.60;;
23282;SDS011;11810;51.178;3.878;2022-08-02T04:55:39;32.65;;;21.33;;
23282;SDS011;11810;51.178;3.878;2022-08-02T04:58:05;39.35;;;24.13;;
23282;SDS011;11810;51.178;3.878;2022-08-02T05:00:31;32.20;;;21.55;;
23282;SDS011;11810;51.178;3.878;2022-08-02T05:02:57;38.05;;;22.50;;
23282;SDS011;11810;51.178;3.878;2022-08-02T05:05:24;36.00;;;20.75;;
23282;SDS011;11810;51.178;3.878;2022-08-02T05:07:51;34.47;;;20.75;;
23282;SDS011;11810;51.178;3.878;2022-08-02T05:10:17;34.22;;;20.50;;
23282;SDS011;11810;51.178;3.878;2022-08-02T05:12:43;35.25;;;20.13;;
23282;SDS011;11810;51.178;3.878;2022-08-02T05:15:12;31.55;;;20.33;;
23282;SDS011;11810;51.178;3.878;2022-08-02T05:17:41;31.65;;;19.50;;
23282;SDS011;11810;51.178;3.878;2022-08-02T05:20:07;31.45;;;20.40;;
23282;SDS011;11810;51.178;3.878;2022-08-02T05:22:33;25.45;;;18.10;;
23282;SDS011;11810;51.178;3.878;2022-08-02T05:24:59;28.95;;;18.20;;
23282;SDS011;11810;51.178;3.878;2022-08-02T05:27:25;27.10;;;18.65;;
23282;SDS011;11810;51.178;3.878;2022-08-02T05:29:51;24.90;;;18.02;;
23282;SDS011;11810;51.178;3.878;2022-08-02T05:32:18;24.05;;;16.65;;
23282;SDS011;11810;51.178;3.878;2022-08-02T05:34:45;24.83;;;15.88;;
23282;SDS011;11810;51.178;3.878;2022-08-02T05:37:10;23.55;;;15.48;;
23282;SDS011;11810;51.178;3.878;2022-08-02T05:39:36;23.65;;;15.10;;
23282;SDS011;11810;51.178;3.878;2022-08-02T05:42:02;23.08;;;16.10;;
23282;SDS011;11810;51.178;3.878;2022-08-02T05:44:28;16.60;;;13.15;;
23282;SDS011;11810;51.178;3.878;2022-08-02T05:46:54;20.40;;;13.32;;
23282;SDS011;11810;51.178;3.878;2022-08-02T05:49:20;23.13;;;13.10;;
23282;SDS011;11810;51.178;3.878;2022-08-02T05:52:03;19.67;;;12.15;;
23282;SDS011;11810;51.178;3.878;2022-08-02T05:57:14;15.93;;;10.73;;
23282;SDS011;11810;51.178;3.878;2022-08-02T05:59:57;14.35;;;10.30;;
23282;SDS011;11810;51.178;3.878;2022-08-02T06:02:42;17.48;;;10.85;;
23282;SDS011;11810;51.178;3.878;2022-08-02T06:05:40;16.65;;;10.60;;
23282;SDS011;11810;51.178;3.878;2022-08-02T06:08:15;17.08;;;10.15;;
23282;SDS011;11810;51.178;3.878;2022-08-02T06:10:43;17.08;;;9.85;;
23282;SDS011;11810;51.178;3.878;2022-08-02T06:13:11;15.57;;;9.35;;
23282;SDS011;11810;51.178;3.878;2022-08-02T06:15:38;13.40;;;7.57;;
23282;SDS011;11810;51.178;3.878;2022-08-02T06:18:05;14.05;;;8.90;;
23282;SDS011;11810;51.178;3.878;2022-08-02T06:20:32;13.68;;;7.35;;
23282;SDS011;11810;51.178;3.878;2022-08-02T06:23:03;14.88;;;8.40;;
23282;SDS011;11810;51.178;3.878;2022-08-02T06:25:33;10.32;;;7.70;;
23282;SDS011;11810;51.178;3.878;2022-08-02T06:28:03;11.80;;;7.07;;
23282;SDS011;11810;51.178;3.878;2022-08-02T06:30:30;18.48;;;7.88;;
23282;SDS011;11810;51.178;3.878;2022-08-02T06:32:57;14.15;;;7.05;;
23282;SDS011;11810;51.178;3.878;2022-08-02T06:35:32;11.73;;;6.90;;
23282;SDS011;11810;51.178;3.878;2022-08-02T06:38:04;12.25;;;7.13;;
23282;SDS011;11810;51.178;3.878;2022-08-02T06:40:44;13.68;;;6.68;;
23282;SDS011;11810;51.178;3.878;2022-08-02T06:43:17;14.77;;;7.28;;
23282;SDS011;11810;51.178;3.878;2022-08-02T06:45:59;16.02;;;7.72;;
23282;SDS011;11810;51.178;3.878;2022-08-02T06:48:25;11.50;;;7.53;;
23282;SDS011;11810;51.178;3.878;2022-08-02T06:50:51;11.95;;;7.82;;
23282;SDS011;11810;51.178;3.878;2022-08-02T06:53:17;12.30;;;7.57;;
23282;SDS011;11810;51.178;3.878;2022-08-02T06:55:43;16.13;;;7.10;;
23282;SDS011;11810;51.178;3.878;2022-08-02T06:58:10;15.07;;;6.78;;
23282;SDS011;11810;51.178;3.878;2022-08-02T07:00:37;11.35;;;6.40;;
23282;SDS011;11810;51.178;3.878;2022-08-02T07:03:03;14.88;;;7.80;;
23282;SDS011;11810;51.178;3.878;2022-08-02T07:05:30;9.43;;;6.50;;
23282;SDS011;11810;51.178;3.878;2022-08-02T07:07:56;11.63;;;7.28;;
23282;SDS011;11810;51.178;3.878;2022-08-02T07:10:22;11.10;;;6.63;;
23282;SDS011;11810;51.178;3.878;2022-08-02T07:12:48;12.73;;;7.55;;
23282;SDS011;11810;51.178;3.878;2022-08-02T07:15:14;14.57;;;7.00;;
23282;SDS011;11810;51.178;3.878;2022-08-02T07:17:40;9.95;;;6.60;;
23282;SDS011;11810;51.178;3.878;2022-08-02T07:20:06;10.45;;;7.10;;
23282;SDS011;11810;51.178;3.878;2022-08-02T07:22:34;10.82;;;7.00;;
23282;SDS011;11810;51.178;3.878;2022-08-02T07:25:00;15.40;;;6.63;;
23282;SDS011;11810;51.178;3.878;2022-08-02T07:27:27;14.30;;;7.35;;
23282;SDS011;11810;51.178;3.878;2022-08-02T07:29:53;11.82;;;5.80;;
23282;SDS011;11810;51.178;3.878;2022-08-02T07:32:21;10.38;;;6.05;;
23282;SDS011;11810;51.178;3.878;2022-08-02T07:34:53;9.80;;;6.27;;
23282;SDS011;11810;51.178;3.878;2022-08-02T07:37:21;10.68;;;5.57;;
23282;SDS011;11810;51.178;3.878;2022-08-02T07:39:48;8.07;;;5.55;;
23282;SDS011;11810;51.178;3.878;2022-08-02T07:42:14;11.20;;;5.70;;
23282;SDS011;11810;51.178;3.878;2022-08-02T07:44:40;14.23;;;5.47;;
23282;SDS011;11810;51.178;3.878;2022-08-02T07:47:06;6.72;;;5.43;;
23282;SDS011;11810;51.178;3.878;2022-08-02T07:49:32;8.30;;;5.30;;
23282;SDS011;11810;51.178;3.878;2022-08-02T07:51:58;14.88;;;5.53;;
23282;SDS011;11810;51.178;3.878;2022-08-02T07:54:24;9.93;;;4.88;;
23282;SDS011;11810;51.178;3.878;2022-08-02T07:56:50;9.30;;;3.92;;
23282;SDS011;11810;51.178;3.878;2022-08-02T07:59:18;8.25;;;3.85;;
23282;SDS011;11810;51.178;3.878;2022-08-02T08:01:44;8.75;;;2.78;;
23282;SDS011;11810;51.178;3.878;2022-08-02T08:04:10;8.45;;;3.47;;
23282;SDS011;11810;51.178;3.878;2022-08-02T08:06:36;8.40;;;3.50;;
23282;SDS011;11810;51.178;3.878;2022-08-02T08:09:02;9.60;;;4.10;;
23282;SDS011;11810;51.178;3.878;2022-08-02T08:11:28;8.15;;;3.67;;
23282;SDS011;11810;51.178;3.878;2022-08-02T08:13:54;9.40;;;3.60;;
23282;SDS011;11810;51.178;3.878;2022-08-02T08:16:20;7.05;;;3.03;;
23282;SDS011;11810;51.178;3.878;2022-08-02T08:18:46;8.52;;;2.80;;
23282;SDS011;11810;51.178;3.878;2022-08-02T08:21:12;8.30;;;2.85;;
23282;SDS011;11810;51.178;3.878;2022-08-02T08:23:38;10.27;;;2.67;;
23282;SDS011;11810;51.178;3.878;2022-08-02T08:26:04;4.55;;;2.03;;
23282;SDS011;11810;51.178;3.878;2022-08-02T08:28:30;4.53;;;2.53;;
23282;SDS011;11810;51.178;3.878;2022-08-02T08:30:56;4.80;;;2.10;;
23282;SDS011;11810;51.178;3.878;2022-08-02T08:33:22;6.07;;;1.90;;
23282;SDS011;11810;51.178;3.878;2022-08-02T08:35:48;5.28;;;1.75;;
23282;SDS011;11810;51.178;3.878;2022-08-02T08:38:14;4.07;;;1.50;;
23282;SDS011;11810;51.178;3.878;2022-08-02T08:40:40;8.43;;;1.48;;
23282;SDS011;11810;51.178;3.878;2022-08-02T08:43:06;6.35;;;1.50;;
23282;SDS011;11810;51.178;3.878;2022-08-02T08:45:32;8.18;;;1.92;;
23282;SDS011;11810;51.178;3.878;2022-08-02T08:48:11;4.93;;;1.70;;
23282;SDS011;11810;51.178;3.878;2022-08-02T08:50:55;4.75;;;1.88;;
23282;SDS011;11810;51.178;3.878;2022-08-02T08:53:24;3.90;;;1.20;;
23282;SDS011;11810;51.178;3.878;2022-08-02T08:55:55;10.93;;;1.65;;
23282;SDS011;11810;51.178;3.878;2022-08-02T08:58:23;3.75;;;1.52;;
23282;SDS011;11810;51.178;3.878;2022-08-02T09:00:49;5.40;;;1.40;;
23282;SDS011;11810;51.178;3.878;2022-08-02T09:03:16;4.72;;;1.20;;
23282;SDS011;11810;51.178;3.878;2022-08-02T09:05:42;4.97;;;1.50;;
23282;SDS011;11810;51.178;3.878;2022-08-02T09:08:11;6.90;;;1.65;;
23282;SDS011;11810;51.178;3.878;2022-08-02T09:10:38;9.52;;;1.50;;
23282;SDS011;11810;51.178;3.878;2022-08-02T09:13:12;6.20;;;1.38;;
23282;SDS011;11810;51.178;3.878;2022-08-02T09:15:42;4.13;;;1.42;;
23282;SDS011;11810;51.178;3.878;2022-08-02T09:18:10;4.40;;;1.65;;
23282;SDS011;11810;51.178;3.878;2022-08-02T09:20:53;4.50;;;1.35;;
23282;SDS011;11810;51.178;3.878;2022-08-02T09:23:23;3.85;;;1.50;;
23282;SDS011;11810;51.178;3.878;2022-08-02T09:26:01;4.97;;;1.88;;
23282;SDS011;11810;51.178;3.878;2022-08-02T09:28:29;4.55;;;1.63;;
23282;SDS011;11810;51.178;3.878;2022-08-02T09:31:02;4.00;;;1.30;;
23282;SDS011;11810;51.178;3.878;2022-08-02T09:33:33;4.60;;;1.13;;
23282;SDS011;11810;51.178;3.878;2022-08-02T09:36:07;4.57;;;1.50;;
23282;SDS011;11810;51.178;3.878;2022-08-02T09:38:56;5.45;;;1.45;;
23282;SDS011;11810;51.178;3.878;2022-08-02T09:41:26;5.13;;;1.23;;
23282;SDS011;11810;51.178;3.878;2022-08-02T09:43:55;2.55;;;1.17;;
23282;SDS011;11810;51.178;3.878;2022-08-02T09:46:26;5.00;;;1.60;;
23282;SDS011;11810;51.178;3.878;2022-08-02T09:48:58;7.07;;;1.10;;
23282;SDS011;11810;51.178;3.878;2022-08-02T09:51:26;2.58;;;1.48;;
23282;SDS011;11810;51.178;3.878;2022-08-02T09:53:54;6.03;;;1.85;;
23282;SDS011;11810;51.178;3.878;2022-08-02T09:56:21;5.63;;;1.33;;
23282;SDS011;11810;51.178;3.878;2022-08-02T09:58:49;3.38;;;1.70;;
23282;SDS011;11810;51.178;3.878;2022-08-02T10:01:19;3.47;;;1.30;;
23282;SDS011;11810;51.178;3.878;2022-08-02T10:03:53;3.38;;;1.30;;
23282;SDS011;11810;51.178;3.878;2022-08-02T10:08:46;9.88;;;1.40;;
23282;SDS011;11810;51.178;3.878;2022-08-02T10:11:12;7.22;;;1.33;;
23282;SDS011;11810;51.178;3.878;2022-08-02T10:13:38;4.55;;;1.15;;
23282;SDS011;11810;51.178;3.878;2022-08-02T10:16:04;6.10;;;1.23;;
23282;SDS011;11810;51.178;3.878;2022-08-02T10:18:31;4.28;;;1.50;;
23282;SDS011;11810;51.178;3.878;2022-08-02T10:20:57;3.42;;;1.40;;
23282;SDS011;11810;51.178;3.878;2022-08-02T10:23:26;7.18;;;1.50;;
23282;SDS011;11810;51.178;3.878;2022-08-02T10:25:55;6.22;;;1.30;;
23282;SDS011;11810;51.178;3.878;2022-08-02T10:28:25;5.45;;;1.40;;
23282;SDS011;11810;51.178;3.878;2022-08-02T10:31:02;7.28;;;1.60;;
23282;SDS011;11810;51.178;3.878;2022-08-02T10:33:32;4.10;;;1.20;;
23282;SDS011;11810;51.178;3.878;2022-08-02T10:36:00;3.35;;;1.30;;
23282;SDS011;11810;51.178;3.878;2022-08-02T10:38:28;5.80;;;1.30;;
23282;SDS011;11810;51.178;3.878;2022-08-02T10:40:55;3.15;;;1.10;;
23282;SDS011;11810;51.178;3.878;2022-08-02T10:43:38;2.13;;;1.20;;
23282;SDS011;11810;51.178;3.878;2022-08-02T10:54:23;5.70;;;1.27;;
23282;SDS011;11810;51.178;3.878;2022-08-02T10:56:54;6.68;;;1.30;;
23282;SDS011;11810;51.178;3.878;2022-08-02T11:01:58;2.78;;;0.90;;
23282;SDS011;11810;51.178;3.878;2022-08-02T11:04:30;3.15;;;0.93;;
23282;SDS011;11810;51.178;3.878;2022-08-02T11:09:34;4.18;;;1.30;;
23282;SDS011;11810;51.178;3.878;2022-08-02T11:12:02;2.72;;;0.98;;
23282;SDS011;11810;51.178;3.878;2022-08-02T11:14:39;3.22;;;1.00;;
23282;SDS011;11810;51.178;3.878;2022-08-02T11:17:17;5.63;;;1.10;;
23282;SDS011;11810;51.178;3.878;2022-08-02T11:22:40;5.47;;;0.80;;
23282;SDS011;11810;51.178;3.878;2022-08-02T11:27:48;3.13;;;1.10;;
23282;SDS011;11810;51.178;3.878;2022-08-02T11:30:20;7.07;;;1.20;;
23282;SDS011;11810;51.178;3.878;2022-08-02T11:32:46;3.25;;;1.00;;
23282;SDS011;11810;51.178;3.878;2022-08-02T11:35:13;4.10;;;1.02;;
23282;SDS011;11810;51.178;3.878;2022-08-02T11:37:40;4.45;;;1.40;;
23282;SDS011;11810;51.178;3.878;2022-08-02T11:40:12;5.68;;;1.00;;
23282;SDS011;11810;51.178;3.878;2022-08-02T11:42:43;3.58;;;1.35;;
23282;SDS011;11810;51.178;3.878;2022-08-02T11:45:12;2.28;;;1.30;;
23282;SDS011;11810;51.178;3.878;2022-08-02T11:47:51;5.70;;;1.70;;
23282;SDS011;11810;51.178;3.878;2022-08-02T11:50:18;4.15;;;1.63;;
23282;SDS011;11810;51.178;3.878;2022-08-02T11:52:49;5.00;;;1.10;;
23282;SDS011;11810;51.178;3.878;2022-08-02T11:55:17;4.45;;;1.50;;
23282;SDS011;11810;51.178;3.878;2022-08-02T11:57:58;3.00;;;1.40;;
23282;SDS011;11810;51.178;3.878;2022-08-02T12:00:25;6.38;;;1.50;;
23282;SDS011;11810;51.178;3.878;2022-08-02T12:02:51;9.45;;;1.63;;
23282;SDS011;11810;51.178;3.878;2022-08-02T12:05:18;4.55;;;1.63;;
23282;SDS011;11810;51.178;3.878;2022-08-02T12:07:46;7.55;;;1.58;;
23282;SDS011;11810;51.178;3.878;2022-08-02T12:10:16;6.20;;;1.60;;
23282;SDS011;11810;51.178;3.878;2022-08-02T12:12:51;7.43;;;1.50;;
23282;SDS011;11810;51.178;3.878;2022-08-02T12:18:09;5.03;;;1.27;;
23282;SDS011;11810;51.178;3.878;2022-08-02T12:21:01;3.80;;;1.35;;
23282;SDS011;11810;51.178;3.878;2022-08-02T12:23:28;2.75;;;1.35;;
23282;SDS011;11810;51.178;3.878;2022-08-02T12:26:04;11.05;;;1.15;;
23282;SDS011;11810;51.178;3.878;2022-08-02T12:28:34;3.40;;;1.13;;
23282;SDS011;11810;51.178;3.878;2022-08-02T12:31:06;6.72;;;1.33;;
23282;SDS011;11810;51.178;3.878;2022-08-02T12:33:48;4.30;;;1.23;;
23282;SDS011;11810;51.178;3.878;2022-08-02T12:38:54;6.88;;;1.40;;
23282;SDS011;11810;51.178;3.878;2022-08-02T12:43:50;6.43;;;1.40;;
23282;SDS011;11810;51.178;3.878;2022-08-02T12:46:17;3.35;;;1.30;;
23282;SDS011;11810;51.178;3.878;2022-08-02T12:48:45;6.75;;;1.75;;
23282;SDS011;11810;51.178;3.878;2022-08-02T12:53:51;7.47;;;1.90;;
23282;SDS011;11810;51.178;3.878;2022-08-02T12:56:27;5.78;;;1.75;;
23282;SDS011;11810;51.178;3.878;2022-08-02T12:58:55;4.60;;;1.35;;
23282;SDS011;11810;51.178;3.878;2022-08-02T13:01:21;4.32;;;1.40;;
23282;SDS011;11810;51.178;3.878;2022-08-02T13:03:50;3.40;;;1.13;;
23282;SDS011;11810;51.178;3.878;2022-08-02T13:06:17;3.20;;;1.35;;
23282;SDS011;11810;51.178;3.878;2022-08-02T13:08:44;5.18;;;1.75;;
23282;SDS011;11810;51.178;3.878;2022-08-02T13:11:10;9.73;;;1.60;;
23282;SDS011;11810;51.178;3.878;2022-08-02T13:13:36;3.63;;;1.33;;
23282;SDS011;11810;51.178;3.878;2022-08-02T13:16:02;5.13;;;1.35;;
23282;SDS011;11810;51.178;3.878;2022-08-02T13:18:28;2.40;;;1.00;;
23282;SDS011;11810;51.178;3.878;2022-08-02T13:20:54;6.55;;;1.15;;
23282;SDS011;11810;51.178;3.878;2022-08-02T13:23:20;7.75;;;1.20;;
23282;SDS011;11810;51.178;3.878;2022-08-02T13:25:48;6.18;;;1.40;;
23282;SDS011;11810;51.178;3.878;2022-08-02T13:28:14;5.90;;;1.30;;
23282;SDS011;11810;51.178;3.878;2022-08-02T13:30:40;3.35;;;1.25;;
23282;SDS011;11810;51.178;3.878;2022-08-02T13:33:06;4.30;;;1.13;;
23282;SDS011;11810;51.178;3.878;2022-08-02T13:35:32;4.07;;;1.42;;
23282;SDS011;11810;51.178;3.878;2022-08-02T13:37:58;6.90;;;1.40;;
23282;SDS011;11810;51.178;3.878;2022-08-02T13:40:28;6.50;;;1.30;;
23282;SDS011;11810;51.178;3.878;2022-08-02T13:42:54;8.30;;;1.27;;
23282;SDS011;11810;51.178;3.878;2022-08-02T13:45:20;2.30;;;0.90;;
23282;SDS011;11810;51.178;3.878;2022-08-02T13:47:46;6.03;;;1.35;;
23282;SDS011;11810;51.178;3.878;2022-08-02T13:50:13;7.22;;;0.82;;
23282;SDS011;11810;51.178;3.878;2022-08-02T13:52:39;7.18;;;1.70;;
23282;SDS011;11810;51.178;3.878;2022-08-02T13:55:05;4.32;;;1.50;;
23282;SDS011;11810;51.178;3.878;2022-08-02T13:57:32;2.50;;;1.08;;
23282;SDS011;11810;51.178;3.878;2022-08-02T13:59:58;2.97;;;1.27;;
23282;SDS011;11810;51.178;3.878;2022-08-02T14:02:25;5.85;;;1.50;;
23282;SDS011;11810;51.178;3.878;2022-08-02T14:04:52;3.97;;;1.15;;
23282;SDS011;11810;51.178;3.878;2022-08-02T14:07:18;5.63;;;1.25;;
23282;SDS011;11810;51.178;3.878;2022-08-02T14:09:44;7.05;;;1.33;;
23282;SDS011;11810;51.178;3.878;2022-08-02T14:12:11;4.05;;;1.05;;
23282;SDS011;11810;51.178;3.878;2022-08-02T14:14:37;3.10;;;0.80;;
23282;SDS011;11810;51.178;3.878;2022-08-02T14:17:03;4.25;;;1.20;;
23282;SDS011;11810;51.178;3.878;2022-08-02T14:19:30;3.63;;;1.30;;
23282;SDS011;11810;51.178;3.878;2022-08-02T14:21:55;4.10;;;1.20;;
23282;SDS011;11810;51.178;3.878;2022-08-02T14:24:22;5.03;;;1.23;;
23282;SDS011;11810;51.178;3.878;2022-08-02T14:26:48;4.72;;;0.90;;
23282;SDS011;11810;51.178;3.878;2022-08-02T14:29:15;4.88;;;1.33;;
23282;SDS011;11810;51.178;3.878;2022-08-02T14:31:41;6.07;;;1.13;;
23282;SDS011;11810;51.178;3.878;2022-08-02T14:34:08;5.45;;;1.08;;
23282;SDS011;11810;51.178;3.878;2022-08-02T14:36:35;6.53;;;1.23;;
23282;SDS011;11810;51.178;3.878;2022-08-02T14:39:02;5.60;;;1.05;;
23282;SDS011;11810;51.178;3.878;2022-08-02T14:41:29;9.77;;;1.33;;
23282;SDS011;11810;51.178;3.878;2022-08-02T14:43:57;8.15;;;1.20;;
23282;SDS011;11810;51.178;3.878;2022-08-02T14:46:30;10.55;;;1.40;;
23282;SDS011;11810;51.178;3.878;2022-08-02T14:48:57;4.85;;;1.13;;
23282;SDS011;11810;51.178;3.878;2022-08-02T14:51:30;7.82;;;1.30;;
23282;SDS011;11810;51.178;3.878;2022-08-02T14:54:00;5.25;;;0.90;;
23282;SDS011;11810;51.178;3.878;2022-08-02T14:56:27;3.47;;;0.93;;
23282;SDS011;11810;51.178;3.878;2022-08-02T14:58:53;6.80;;;1.02;;
23282;SDS011;11810;51.178;3.878;2022-08-02T15:01:19;3.17;;;0.93;;
23282;SDS011;11810;51.178;3.878;2022-08-02T15:03:45;4.40;;;1.05;;
23282;SDS011;11810;51.178;3.878;2022-08-02T15:06:11;7.25;;;1.30;;
23282;SDS011;11810;51.178;3.878;2022-08-02T15:08:37;5.00;;;0.98;;
23282;SDS011;11810;51.178;3.878;2022-08-02T15:11:03;4.57;;;1.10;;
23282;SDS011;11810;51.178;3.878;2022-08-02T15:13:29;4.88;;;1.10;;
23282;SDS011;11810;51.178;3.878;2022-08-02T15:15:55;8.85;;;1.40;;
23282;SDS011;11810;51.178;3.878;2022-08-02T15:18:21;5.45;;;0.90;;
23282;SDS011;11810;51.178;3.878;2022-08-02T15:20:47;7.00;;;1.23;;
23282;SDS011;11810;51.178;3.878;2022-08-02T15:23:13;8.65;;;1.00;;
23282;SDS011;11810;51.178;3.878;2022-08-02T15:25:40;7.05;;;1.30;;
23282;SDS011;11810;51.178;3.878;2022-08-02T15:28:07;6.40;;;1.50;;
23282;SDS011;11810;51.178;3.878;2022-08-02T15:30:33;5.35;;;1.20;;
23282;SDS011;11810;51.178;3.878;2022-08-02T15:33:01;7.03;;;1.00;;
23282;SDS011;11810;51.178;3.878;2022-08-02T15:35:30;3.05;;;1.00;;